sensor_id;sensor_type;location;lat;lon;timestamp;P1;durP1;ratioP1;P2;durP2;ratioP2
44476;SDS011;30180;44.788;10.366;2023-02-01T00:01:22;5.22;;;3.00;;
44476;SDS011;30180;44.788;10.366;2023-02-01T00:03:51;5.03;;;3.15;;
44476;SDS011;30180;44.788;10.366;2023-02-01T00:06:19;5.85;;;3.03;;
44476;SDS011;30180;44.788;10.366;2023-02-01T00:08:47;6.00;;;3.00;;
44476;SDS011;30180;44.788;10.366;2023-02-01T00:11:15;5.18;;;2.88;;
44476;SDS011;30180;44.788;10.366;2023-02-01T00:13:43;4.22;;;2.67;;
44476;SDS011;30180;44.788;10.366;2023-02-01T00:16:14;5.80;;;2.85;;
44476;SDS011;30180;44.788;10.366;2023-02-01T00:18:43;5.63;;;3.03;;
44476;SDS011;30180;44.788;10.366;2023-02-01T00:21:12;5.18;;;3.00;;
44476;SDS011;30180;44.788;10.366;2023-02-01T00:23:41;4.60;;;2.92;;
44476;SDS011;30180;44.788;10.366;2023-02-01T00:26:11;5.93;;;2.88;;
44476;SDS011;30180;44.788;10.366;2023-02-01T00:28:44;4.60;;;2.55;;
44476;SDS011;30180;44.788;10.366;2023-02-01T00:31:14;5.18;;;3.15;;
44476;SDS011;30180;44.788;10.366;2023-02-01T00:33:42;4.78;;;2.60;;
44476;SDS011;30180;44.788;10.366;2023-02-01T00:36:14;5.05;;;2.90;;
44476;SDS011;30180;44.788;10.366;2023-02-01T00:38:42;5.32;;;3.03;;
44476;SDS011;30180;44.788;10.366;2023-02-01T00:41:11;5.55;;;2.80;;
44476;SDS011;30180;44.788;10.366;2023-02-01T00:43:41;4.60;;;2.50;;
44476;SDS011;30180;44.788;10.366;2023-02-01T00:46:11;4.72;;;2.50;;
44476;SDS011;30180;44.788;10.366;2023-02-01T00:48:41;5.65;;;2.90;;
44476;SDS011;30180;44.788;10.366;2023-02-01T00:51:11;4.80;;;2.67;;
44476;SDS011;30180;44.788;10.366;2023-02-01T00:53:40;4.30;;;2.53;;
44476;SDS011;30180;44.788;10.366;2023-02-01T00:56:09;4.53;;;2.33;;
44476;SDS011;30180;44.788;10.366;2023-02-01T00:58:37;5.00;;;2.78;;
44476;SDS011;30180;44.788;10.366;2023-02-01T01:01:07;4.30;;;2.63;;
44476;SDS011;30180;44.788;10.366;2023-02-01T01:03:37;5.50;;;2.72;;
44476;SDS011;30180;44.788;10.366;2023-02-01T01:06:08;4.68;;;2.75;;
44476;SDS011;30180;44.788;10.366;2023-02-01T01:08:38;4.50;;;2.58;;
44476;SDS011;30180;44.788;10.366;2023-02-01T01:11:07;4.30;;;2.72;;
44476;SDS011;30180;44.788;10.366;2023-02-01T01:13:37;5.15;;;2.67;;
44476;SDS011;30180;44.788;10.366;2023-02-01T01:16:06;4.18;;;2.45;;
44476;SDS011;30180;44.788;10.366;2023-02-01T01:18:37;5.65;;;2.83;;
44476;SDS011;30180;44.788;10.366;2023-02-01T01:21:06;4.65;;;2.70;;
44476;SDS011;30180;44.788;10.366;2023-02-01T01:23:37;4.60;;;2.33;;
44476;SDS011;30180;44.788;10.366;2023-02-01T01:26:05;5.18;;;2.38;;
44476;SDS011;30180;44.788;10.366;2023-02-01T01:28:34;4.30;;;2.63;;
44476;SDS011;30180;44.788;10.366;2023-02-01T01:31:03;4.25;;;2.50;;
44476;SDS011;30180;44.788;10.366;2023-02-01T01:33:34;3.53;;;2.22;;
44476;SDS011;30180;44.788;10.366;2023-02-01T01:36:04;5.22;;;2.72;;
44476;SDS011;30180;44.788;10.366;2023-02-01T01:38:34;3.78;;;2.20;;
44476;SDS011;30180;44.788;10.366;2023-02-01T01:41:02;3.55;;;2.15;;
44476;SDS011;30180;44.788;10.366;2023-02-01T01:43:51;5.55;;;2.95;;
44476;SDS011;30180;44.788;10.366;2023-02-01T01:46:22;3.95;;;2.38;;
44476;SDS011;30180;44.788;10.366;2023-02-01T01:48:53;4.05;;;2.47;;
44476;SDS011;30180;44.788;10.366;2023-02-01T01:51:28;4.38;;;2.42;;
44476;SDS011;30180;44.788;10.366;2023-02-01T01:54:02;4.70;;;2.50;;
44476;SDS011;30180;44.788;10.366;2023-02-01T01:56:34;4.93;;;2.58;;
44476;SDS011;30180;44.788;10.366;2023-02-01T01:59:02;3.92;;;2.22;;
44476;SDS011;30180;44.788;10.366;2023-02-01T02:01:32;4.97;;;2.38;;
44476;SDS011;30180;44.788;10.366;2023-02-01T02:04:00;3.83;;;2.20;;
44476;SDS011;30180;44.788;10.366;2023-02-01T02:06:34;4.38;;;2.80;;
44476;SDS011;30180;44.788;10.366;2023-02-01T02:09:13;4.97;;;2.78;;
44476;SDS011;30180;44.788;10.366;2023-02-01T02:11:42;3.90;;;2.50;;
44476;SDS011;30180;44.788;10.366;2023-02-01T02:14:11;3.53;;;2.10;;
44476;SDS011;30180;44.788;10.366;2023-02-01T02:16:48;3.67;;;2.00;;
44476;SDS011;30180;44.788;10.366;2023-02-01T02:22:45;4.82;;;2.25;;
44476;SDS011;30180;44.788;10.366;2023-02-01T02:25:32;4.63;;;2.17;;
44476;SDS011;30180;44.788;10.366;2023-02-01T02:28:18;3.90;;;2.38;;
44476;SDS011;30180;44.788;10.366;2023-02-01T02:31:11;4.00;;;2.22;;
44476;SDS011;30180;44.788;10.366;2023-02-01T02:33:58;4.35;;;2.47;;
44476;SDS011;30180;44.788;10.366;2023-02-01T02:36:37;3.92;;;2.22;;
44476;SDS011;30180;44.788;10.366;2023-02-01T02:39:18;4.93;;;2.77;;
44476;SDS011;30180;44.788;10.366;2023-02-01T02:41:56;4.00;;;2.13;;
44476;SDS011;30180;44.788;10.366;2023-02-01T02:44:48;5.10;;;2.45;;
44476;SDS011;30180;44.788;10.366;2023-02-01T02:47:40;3.90;;;2.20;;
44476;SDS011;30180;44.788;10.366;2023-02-01T02:50:17;3.67;;;2.03;;
44476;SDS011;30180;44.788;10.366;2023-02-01T02:53:10;4.53;;;2.30;;
44476;SDS011;30180;44.788;10.366;2023-02-01T02:55:59;3.90;;;2.40;;
44476;SDS011;30180;44.788;10.366;2023-02-01T02:58:48;4.95;;;2.25;;
44476;SDS011;30180;44.788;10.366;2023-02-01T03:01:34;3.95;;;2.20;;
44476;SDS011;30180;44.788;10.366;2023-02-01T03:04:21;4.15;;;2.30;;
44476;SDS011;30180;44.788;10.366;2023-02-01T03:06:53;4.53;;;2.22;;
44476;SDS011;30180;44.788;10.366;2023-02-01T03:09:22;3.63;;;2.40;;
44476;SDS011;30180;44.788;10.366;2023-02-01T03:11:55;4.47;;;2.17;;
44476;SDS011;30180;44.788;10.366;2023-02-01T03:14:46;4.22;;;2.08;;
44476;SDS011;30180;44.788;10.366;2023-02-01T03:17:19;4.82;;;2.20;;
44476;SDS011;30180;44.788;10.366;2023-02-01T03:19:53;4.53;;;2.33;;
44476;SDS011;30180;44.788;10.366;2023-02-01T03:22:26;4.05;;;2.35;;
44476;SDS011;30180;44.788;10.366;2023-02-01T03:25:00;4.78;;;2.22;;
44476;SDS011;30180;44.788;10.366;2023-02-01T03:27:32;4.03;;;2.20;;
44476;SDS011;30180;44.788;10.366;2023-02-01T03:30:03;3.40;;;2.25;;
44476;SDS011;30180;44.788;10.366;2023-02-01T03:32:36;4.43;;;2.55;;
44476;SDS011;30180;44.788;10.366;2023-02-01T03:35:21;4.32;;;2.30;;
44476;SDS011;30180;44.788;10.366;2023-02-01T03:37:56;3.72;;;2.08;;
44476;SDS011;30180;44.788;10.366;2023-02-01T03:40:32;3.47;;;2.00;;
44476;SDS011;30180;44.788;10.366;2023-02-01T03:43:04;3.70;;;2.10;;
44476;SDS011;30180;44.788;10.366;2023-02-01T03:45:35;3.87;;;2.27;;
44476;SDS011;30180;44.788;10.366;2023-02-01T03:48:07;3.65;;;2.22;;
44476;SDS011;30180;44.788;10.366;2023-02-01T03:50:36;4.28;;;2.33;;
44476;SDS011;30180;44.788;10.366;2023-02-01T03:53:13;3.92;;;2.03;;
44476;SDS011;30180;44.788;10.366;2023-02-01T03:55:45;3.72;;;2.30;;
44476;SDS011;30180;44.788;10.366;2023-02-01T03:58:14;3.80;;;2.40;;
44476;SDS011;30180;44.788;10.366;2023-02-01T04:00:45;4.00;;;2.00;;
44476;SDS011;30180;44.788;10.366;2023-02-01T04:03:17;3.88;;;2.05;;
44476;SDS011;30180;44.788;10.366;2023-02-01T04:05:45;3.47;;;1.90;;
44476;SDS011;30180;44.788;10.366;2023-02-01T04:08:15;3.83;;;2.20;;
44476;SDS011;30180;44.788;10.366;2023-02-01T04:10:43;4.20;;;2.05;;
44476;SDS011;30180;44.788;10.366;2023-02-01T04:13:12;4.18;;;2.22;;
44476;SDS011;30180;44.788;10.366;2023-02-01T04:15:40;4.07;;;2.05;;
44476;SDS011;30180;44.788;10.366;2023-02-01T04:18:09;3.78;;;2.15;;
44476;SDS011;30180;44.788;10.366;2023-02-01T04:20:37;4.65;;;2.00;;
44476;SDS011;30180;44.788;10.366;2023-02-01T04:23:05;3.55;;;2.10;;
44476;SDS011;30180;44.788;10.366;2023-02-01T04:25:35;3.13;;;1.80;;
44476;SDS011;30180;44.788;10.366;2023-02-01T04:28:03;3.50;;;1.85;;
44476;SDS011;30180;44.788;10.366;2023-02-01T04:30:33;3.00;;;1.88;;
44476;SDS011;30180;44.788;10.366;2023-02-01T04:33:01;3.15;;;1.85;;
44476;SDS011;30180;44.788;10.366;2023-02-01T04:38:00;2.92;;;1.85;;
44476;SDS011;30180;44.788;10.366;2023-02-01T04:40:28;3.90;;;2.10;;
44476;SDS011;30180;44.788;10.366;2023-02-01T04:42:58;3.63;;;2.05;;
44476;SDS011;30180;44.788;10.366;2023-02-01T04:45:29;3.53;;;1.92;;
44476;SDS011;30180;44.788;10.366;2023-02-01T04:47:58;3.33;;;2.00;;
44476;SDS011;30180;44.788;10.366;2023-02-01T04:50:26;2.83;;;1.67;;
44476;SDS011;30180;44.788;10.366;2023-02-01T04:52:54;3.25;;;1.88;;
44476;SDS011;30180;44.788;10.366;2023-02-01T04:55:22;3.80;;;2.03;;
44476;SDS011;30180;44.788;10.366;2023-02-01T04:57:51;3.42;;;2.00;;
44476;SDS011;30180;44.788;10.366;2023-02-01T05:00:20;4.68;;;1.92;;
44476;SDS011;30180;44.788;10.366;2023-02-01T05:02:49;3.53;;;2.03;;
44476;SDS011;30180;44.788;10.366;2023-02-01T05:05:17;2.85;;;1.70;;
44476;SDS011;30180;44.788;10.366;2023-02-01T05:07:45;2.95;;;1.80;;
44476;SDS011;30180;44.788;10.366;2023-02-01T05:10:14;3.83;;;1.90;;
44476;SDS011;30180;44.788;10.366;2023-02-01T05:12:42;3.42;;;2.00;;
44476;SDS011;30180;44.788;10.366;2023-02-01T05:15:29;4.60;;;2.30;;
44476;SDS011;30180;44.788;10.366;2023-02-01T05:17:58;4.20;;;1.90;;
44476;SDS011;30180;44.788;10.366;2023-02-01T05:20:26;3.92;;;2.10;;
44476;SDS011;30180;44.788;10.366;2023-02-01T05:22:54;3.58;;;1.88;;
44476;SDS011;30180;44.788;10.366;2023-02-01T05:25:22;3.58;;;2.05;;
44476;SDS011;30180;44.788;10.366;2023-02-01T05:27:51;3.28;;;1.80;;
44476;SDS011;30180;44.788;10.366;2023-02-01T05:30:20;4.15;;;2.20;;
44476;SDS011;30180;44.788;10.366;2023-02-01T05:32:51;3.13;;;1.90;;
44476;SDS011;30180;44.788;10.366;2023-02-01T05:35:19;3.23;;;1.77;;
44476;SDS011;30180;44.788;10.366;2023-02-01T05:37:48;3.30;;;2.00;;
44476;SDS011;30180;44.788;10.366;2023-02-01T05:40:16;2.63;;;1.67;;
44476;SDS011;30180;44.788;10.366;2023-02-01T05:42:44;2.92;;;1.80;;
44476;SDS011;30180;44.788;10.366;2023-02-01T05:45:12;3.55;;;2.10;;
44476;SDS011;30180;44.788;10.366;2023-02-01T05:47:41;3.50;;;2.00;;
44476;SDS011;30180;44.788;10.366;2023-02-01T05:50:11;3.42;;;1.85;;
44476;SDS011;30180;44.788;10.366;2023-02-01T05:52:39;3.22;;;1.67;;
44476;SDS011;30180;44.788;10.366;2023-02-01T05:55:07;2.85;;;1.70;;
44476;SDS011;30180;44.788;10.366;2023-02-01T05:57:36;4.00;;;2.25;;
44476;SDS011;30180;44.788;10.366;2023-02-01T06:00:05;3.15;;;1.63;;
44476;SDS011;30180;44.788;10.366;2023-02-01T06:02:34;3.40;;;1.70;;
44476;SDS011;30180;44.788;10.366;2023-02-01T06:05:02;3.42;;;1.90;;
44476;SDS011;30180;44.788;10.366;2023-02-01T06:07:32;3.58;;;2.13;;
44476;SDS011;30180;44.788;10.366;2023-02-01T06:10:01;3.25;;;1.60;;
44476;SDS011;30180;44.788;10.366;2023-02-01T06:12:29;3.22;;;1.83;;
44476;SDS011;30180;44.788;10.366;2023-02-01T06:14:57;2.45;;;1.50;;
44476;SDS011;30180;44.788;10.366;2023-02-01T06:17:25;3.72;;;2.13;;
44476;SDS011;30180;44.788;10.366;2023-02-01T06:19:54;3.45;;;1.73;;
44476;SDS011;30180;44.788;10.366;2023-02-01T06:22:22;3.67;;;1.92;;
44476;SDS011;30180;44.788;10.366;2023-02-01T06:24:52;3.60;;;1.90;;
44476;SDS011;30180;44.788;10.366;2023-02-01T06:27:20;3.45;;;1.73;;
44476;SDS011;30180;44.788;10.366;2023-02-01T06:29:48;3.05;;;1.88;;
44476;SDS011;30180;44.788;10.366;2023-02-01T06:32:16;3.25;;;1.77;;
44476;SDS011;30180;44.788;10.366;2023-02-01T06:34:44;3.00;;;1.88;;
44476;SDS011;30180;44.788;10.366;2023-02-01T06:37:13;4.00;;;1.85;;
44476;SDS011;30180;44.788;10.366;2023-02-01T06:39:41;2.55;;;1.60;;
44476;SDS011;30180;44.788;10.366;2023-02-01T06:42:11;2.58;;;1.70;;
44476;SDS011;30180;44.788;10.366;2023-02-01T06:44:39;2.72;;;1.60;;
44476;SDS011;30180;44.788;10.366;2023-02-01T06:47:07;3.75;;;1.80;;
44476;SDS011;30180;44.788;10.366;2023-02-01T06:49:35;2.88;;;1.83;;
44476;SDS011;30180;44.788;10.366;2023-02-01T06:52:04;3.47;;;1.63;;
44476;SDS011;30180;44.788;10.366;2023-02-01T06:54:32;2.17;;;1.50;;
44476;SDS011;30180;44.788;10.366;2023-02-01T06:57:00;2.70;;;1.50;;
44476;SDS011;30180;44.788;10.366;2023-02-01T06:59:30;2.83;;;1.70;;
44476;SDS011;30180;44.788;10.366;2023-02-01T07:01:58;2.95;;;1.58;;
44476;SDS011;30180;44.788;10.366;2023-02-01T07:04:27;5.10;;;1.58;;
44476;SDS011;30180;44.788;10.366;2023-02-01T07:06:55;2.78;;;1.67;;
44476;SDS011;30180;44.788;10.366;2023-02-01T07:09:23;3.95;;;1.95;;
44476;SDS011;30180;44.788;10.366;2023-02-01T07:11:51;3.83;;;1.73;;
44476;SDS011;30180;44.788;10.366;2023-02-01T07:14:20;2.53;;;1.58;;
44476;SDS011;30180;44.788;10.366;2023-02-01T07:16:49;2.63;;;1.60;;
44476;SDS011;30180;44.788;10.366;2023-02-01T07:19:18;2.50;;;1.58;;
44476;SDS011;30180;44.788;10.366;2023-02-01T07:21:46;2.85;;;1.67;;
44476;SDS011;30180;44.788;10.366;2023-02-01T07:24:14;3.33;;;1.73;;
44476;SDS011;30180;44.788;10.366;2023-02-01T07:26:42;3.67;;;1.70;;
44476;SDS011;30180;44.788;10.366;2023-02-01T07:29:11;2.60;;;1.67;;
44476;SDS011;30180;44.788;10.366;2023-02-01T07:31:39;2.67;;;1.55;;
44476;SDS011;30180;44.788;10.366;2023-02-01T07:34:09;3.13;;;1.58;;
44476;SDS011;30180;44.788;10.366;2023-02-01T07:36:37;2.50;;;1.70;;
44476;SDS011;30180;44.788;10.366;2023-02-01T07:39:05;3.65;;;1.77;;
44476;SDS011;30180;44.788;10.366;2023-02-01T07:41:34;7.75;;;4.13;;
44476;SDS011;30180;44.788;10.366;2023-02-01T07:44:02;14.02;;;8.07;;
44476;SDS011;30180;44.788;10.366;2023-02-01T07:46:30;12.65;;;9.07;;
44476;SDS011;30180;44.788;10.366;2023-02-01T07:48:59;18.85;;;13.40;;
44476;SDS011;30180;44.788;10.366;2023-02-01T07:51:28;24.48;;;18.08;;
44476;SDS011;30180;44.788;10.366;2023-02-01T07:53:57;27.73;;;23.17;;
44476;SDS011;30180;44.788;10.366;2023-02-01T07:56:25;35.28;;;27.95;;
44476;SDS011;30180;44.788;10.366;2023-02-01T07:58:54;36.40;;;32.45;;
44476;SDS011;30180;44.788;10.366;2023-02-01T08:01:23;39.20;;;34.92;;
44476;SDS011;30180;44.788;10.366;2023-02-01T08:03:53;45.60;;;37.97;;
44476;SDS011;30180;44.788;10.366;2023-02-01T08:06:22;46.55;;;39.97;;
44476;SDS011;30180;44.788;10.366;2023-02-01T08:08:53;49.42;;;42.50;;
44476;SDS011;30180;44.788;10.366;2023-02-01T08:11:22;47.13;;;39.90;;
44476;SDS011;30180;44.788;10.366;2023-02-01T08:13:51;40.08;;;35.40;;
44476;SDS011;30180;44.788;10.366;2023-02-01T08:16:21;39.78;;;34.28;;
44476;SDS011;30180;44.788;10.366;2023-02-01T08:18:50;37.08;;;31.92;;
44476;SDS011;30180;44.788;10.366;2023-02-01T08:21:20;34.85;;;30.42;;
44476;SDS011;30180;44.788;10.366;2023-02-01T08:23:50;33.13;;;29.65;;
44476;SDS011;30180;44.788;10.366;2023-02-01T08:26:20;31.88;;;27.80;;
44476;SDS011;30180;44.788;10.366;2023-02-01T08:28:51;31.20;;;27.80;;
44476;SDS011;30180;44.788;10.366;2023-02-01T08:33:51;30.42;;;25.67;;
44476;SDS011;30180;44.788;10.366;2023-02-01T08:36:21;31.60;;;26.25;;
44476;SDS011;30180;44.788;10.366;2023-02-01T08:38:50;26.88;;;23.98;;
44476;SDS011;30180;44.788;10.366;2023-02-01T08:41:21;27.63;;;24.73;;
44476;SDS011;30180;44.788;10.366;2023-02-01T08:43:50;28.40;;;23.60;;
44476;SDS011;30180;44.788;10.366;2023-02-01T08:46:19;26.30;;;23.50;;
44476;SDS011;30180;44.788;10.366;2023-02-01T08:48:48;25.10;;;21.20;;
44476;SDS011;30180;44.788;10.366;2023-02-01T08:51:18;25.63;;;22.55;;
44476;SDS011;30180;44.788;10.366;2023-02-01T08:53:48;26.90;;;22.63;;
44476;SDS011;30180;44.788;10.366;2023-02-01T08:56:17;24.45;;;21.38;;
44476;SDS011;30180;44.788;10.366;2023-02-01T08:58:47;23.42;;;20.83;;
44476;SDS011;30180;44.788;10.366;2023-02-01T09:01:16;22.90;;;20.40;;
44476;SDS011;30180;44.788;10.366;2023-02-01T09:03:44;23.27;;;20.50;;
44476;SDS011;30180;44.788;10.366;2023-02-01T09:06:13;22.85;;;20.45;;
44476;SDS011;30180;44.788;10.366;2023-02-01T09:08:42;21.63;;;19.17;;
44476;SDS011;30180;44.788;10.366;2023-02-01T09:11:12;21.83;;;19.45;;
44476;SDS011;30180;44.788;10.366;2023-02-01T09:13:44;21.95;;;19.65;;
44476;SDS011;30180;44.788;10.366;2023-02-01T09:16:14;20.25;;;18.05;;
44476;SDS011;30180;44.788;10.366;2023-02-01T09:18:42;19.90;;;17.63;;
44476;SDS011;30180;44.788;10.366;2023-02-01T09:21:26;20.50;;;18.08;;
44476;SDS011;30180;44.788;10.366;2023-02-01T09:23:55;21.27;;;17.55;;
44476;SDS011;30180;44.788;10.366;2023-02-01T09:26:24;23.17;;;17.42;;
44476;SDS011;30180;44.788;10.366;2023-02-01T09:28:59;19.33;;;16.98;;
44476;SDS011;30180;44.788;10.366;2023-02-01T09:31:28;21.67;;;16.73;;
44476;SDS011;30180;44.788;10.366;2023-02-01T09:33:57;19.85;;;16.45;;
44476;SDS011;30180;44.788;10.366;2023-02-01T09:36:25;21.30;;;16.40;;
44476;SDS011;30180;44.788;10.366;2023-02-01T09:41:27;20.35;;;14.93;;
44476;SDS011;30180;44.788;10.366;2023-02-01T09:44:09;19.45;;;15.25;;
44476;SDS011;30180;44.788;10.366;2023-02-01T09:47:11;17.05;;;14.80;;
44476;SDS011;30180;44.788;10.366;2023-02-01T09:49:45;16.20;;;12.70;;
44476;SDS011;30180;44.788;10.366;2023-02-01T09:52:23;19.17;;;13.35;;
44476;SDS011;30180;44.788;10.366;2023-02-01T09:54:58;17.63;;;12.77;;
44476;SDS011;30180;44.788;10.366;2023-02-01T09:57:36;18.98;;;12.95;;
44476;SDS011;30180;44.788;10.366;2023-02-01T10:00:16;16.05;;;11.10;;
44476;SDS011;30180;44.788;10.366;2023-02-01T10:02:48;17.75;;;12.27;;
44476;SDS011;30180;44.788;10.366;2023-02-01T10:05:18;15.95;;;11.35;;
44476;SDS011;30180;44.788;10.366;2023-02-01T10:07:59;13.82;;;10.73;;
44476;SDS011;30180;44.788;10.366;2023-02-01T10:10:34;13.82;;;10.38;;
44476;SDS011;30180;44.788;10.366;2023-02-01T10:13:09;13.82;;;9.95;;
44476;SDS011;30180;44.788;10.366;2023-02-01T10:16:09;15.65;;;10.38;;
44476;SDS011;30180;44.788;10.366;2023-02-01T10:18:51;14.43;;;9.82;;
44476;SDS011;30180;44.788;10.366;2023-02-01T10:21:46;13.25;;;9.80;;
44476;SDS011;30180;44.788;10.366;2023-02-01T10:24:26;16.25;;;9.65;;
44476;SDS011;30180;44.788;10.366;2023-02-01T10:27:17;16.30;;;10.05;;
44476;SDS011;30180;44.788;10.366;2023-02-01T10:29:48;13.93;;;8.30;;
44476;SDS011;30180;44.788;10.366;2023-02-01T10:32:24;10.50;;;7.18;;
44476;SDS011;30180;44.788;10.366;2023-02-01T10:34:58;14.32;;;7.45;;
44476;SDS011;30180;44.788;10.366;2023-02-01T10:37:28;11.73;;;7.18;;
44476;SDS011;30180;44.788;10.366;2023-02-01T10:42:28;13.52;;;6.25;;
44476;SDS011;30180;44.788;10.366;2023-02-01T10:44:59;10.88;;;6.55;;
44476;SDS011;30180;44.788;10.366;2023-02-01T10:47:31;10.63;;;7.07;;
44476;SDS011;30180;44.788;10.366;2023-02-01T10:50:02;9.48;;;6.72;;
44476;SDS011;30180;44.788;10.366;2023-02-01T10:52:43;10.13;;;6.57;;
44476;SDS011;30180;44.788;10.366;2023-02-01T10:55:29;10.95;;;6.05;;
44476;SDS011;30180;44.788;10.366;2023-02-01T10:58:01;11.70;;;6.70;;
44476;SDS011;30180;44.788;10.366;2023-02-01T11:00:34;10.80;;;6.13;;
44476;SDS011;30180;44.788;10.366;2023-02-01T11:03:25;11.23;;;6.15;;
44476;SDS011;30180;44.788;10.366;2023-02-01T11:06:09;11.00;;;6.20;;
44476;SDS011;30180;44.788;10.366;2023-02-01T11:08:42;8.85;;;5.93;;
44476;SDS011;30180;44.788;10.366;2023-02-01T11:11:13;9.55;;;5.93;;
44476;SDS011;30180;44.788;10.366;2023-02-01T11:13:42;11.27;;;6.57;;
44476;SDS011;30180;44.788;10.366;2023-02-01T11:16:12;11.43;;;6.40;;
44476;SDS011;30180;44.788;10.366;2023-02-01T11:18:44;10.13;;;6.18;;
44476;SDS011;30180;44.788;10.366;2023-02-01T11:23:42;9.45;;;6.07;;
44476;SDS011;30180;44.788;10.366;2023-02-01T11:26:14;10.10;;;5.30;;
44476;SDS011;30180;44.788;10.366;2023-02-01T11:28:53;10.68;;;5.82;;
44476;SDS011;30180;44.788;10.366;2023-02-01T11:31:26;8.88;;;5.78;;
44476;SDS011;30180;44.788;10.366;2023-02-01T11:34:00;9.90;;;5.57;;
44476;SDS011;30180;44.788;10.366;2023-02-01T11:36:33;8.70;;;5.47;;
44476;SDS011;30180;44.788;10.366;2023-02-01T11:41:41;10.75;;;5.47;;
44476;SDS011;30180;44.788;10.366;2023-02-01T11:44:19;10.15;;;5.93;;
44476;SDS011;30180;44.788;10.366;2023-02-01T11:46:49;8.75;;;5.70;;
44476;SDS011;30180;44.788;10.366;2023-02-01T11:49:21;9.57;;;5.43;;
44476;SDS011;30180;44.788;10.366;2023-02-01T11:51:54;12.68;;;5.43;;
44476;SDS011;30180;44.788;10.366;2023-02-01T11:54:35;9.77;;;5.82;;
44476;SDS011;30180;44.788;10.366;2023-02-01T11:57:14;8.75;;;5.38;;
44476;SDS011;30180;44.788;10.366;2023-02-01T11:59:54;12.32;;;5.38;;
44476;SDS011;30180;44.788;10.366;2023-02-01T12:03:01;7.53;;;4.97;;
44476;SDS011;30180;44.788;10.366;2023-02-01T12:05:47;9.43;;;5.57;;
44476;SDS011;30180;44.788;10.366;2023-02-01T12:11:31;10.43;;;5.47;;
44476;SDS011;30180;44.788;10.366;2023-02-01T12:14:11;9.27;;;5.35;;
44476;SDS011;30180;44.788;10.366;2023-02-01T12:16:55;8.77;;;5.40;;
44476;SDS011;30180;44.788;10.366;2023-02-01T12:22:12;6.95;;;4.70;;
44476;SDS011;30180;44.788;10.366;2023-02-01T12:24:52;11.15;;;5.50;;
44476;SDS011;30180;44.788;10.366;2023-02-01T12:27:41;7.72;;;4.65;;
44476;SDS011;30180;44.788;10.366;2023-02-01T12:30:39;11.02;;;4.80;;
44476;SDS011;30180;44.788;10.366;2023-02-01T12:33:18;11.52;;;5.05;;
44476;SDS011;30180;44.788;10.366;2023-02-01T12:35:59;9.48;;;4.70;;
44476;SDS011;30180;44.788;10.366;2023-02-01T12:38:42;7.68;;;4.95;;
44476;SDS011;30180;44.788;10.366;2023-02-01T12:41:28;9.60;;;5.28;;
44476;SDS011;30180;44.788;10.366;2023-02-01T12:44:31;7.40;;;4.75;;
44476;SDS011;30180;44.788;10.366;2023-02-01T12:47:09;8.57;;;4.85;;
44476;SDS011;30180;44.788;10.366;2023-02-01T12:49:46;8.70;;;4.78;;
44476;SDS011;30180;44.788;10.366;2023-02-01T12:52:21;10.50;;;4.93;;
44476;SDS011;30180;44.788;10.366;2023-02-01T12:54:59;14.32;;;6.00;;
44476;SDS011;30180;44.788;10.366;2023-02-01T12:57:33;17.02;;;6.45;;
44476;SDS011;30180;44.788;10.366;2023-02-01T13:00:07;19.20;;;7.05;;
44476;SDS011;30180;44.788;10.366;2023-02-01T13:02:51;24.10;;;7.82;;
44476;SDS011;30180;44.788;10.366;2023-02-01T13:05:27;26.33;;;7.57;;
44476;SDS011;30180;44.788;10.366;2023-02-01T13:08:00;21.20;;;8.13;;
44476;SDS011;30180;44.788;10.366;2023-02-01T13:10:33;19.40;;;7.68;;
44476;SDS011;30180;44.788;10.366;2023-02-01T13:13:07;28.83;;;8.25;;
44476;SDS011;30180;44.788;10.366;2023-02-01T13:15:43;25.42;;;9.15;;
44476;SDS011;30180;44.788;10.366;2023-02-01T13:18:16;22.33;;;7.70;;
44476;SDS011;30180;44.788;10.366;2023-02-01T13:20:50;19.25;;;7.75;;
44476;SDS011;30180;44.788;10.366;2023-02-01T13:23:25;23.33;;;7.75;;
44476;SDS011;30180;44.788;10.366;2023-02-01T13:25:58;20.02;;;7.05;;
44476;SDS011;30180;44.788;10.366;2023-02-01T13:28:28;19.05;;;7.43;;
44476;SDS011;30180;44.788;10.366;2023-02-01T13:31:10;18.25;;;6.95;;
44476;SDS011;30180;44.788;10.366;2023-02-01T13:36:54;17.88;;;7.07;;
44476;SDS011;30180;44.788;10.366;2023-02-01T13:39:49;16.75;;;6.13;;
44476;SDS011;30180;44.788;10.366;2023-02-01T13:42:28;18.02;;;6.60;;
44476;SDS011;30180;44.788;10.366;2023-02-01T13:44:59;15.23;;;6.45;;
44476;SDS011;30180;44.788;10.366;2023-02-01T13:47:31;14.10;;;6.47;;
44476;SDS011;30180;44.788;10.366;2023-02-01T13:50:02;14.90;;;6.95;;
44476;SDS011;30180;44.788;10.366;2023-02-01T13:52:40;16.73;;;7.25;;
44476;SDS011;30180;44.788;10.366;2023-02-01T13:55:16;15.07;;;6.07;;
44476;SDS011;30180;44.788;10.366;2023-02-01T13:58:06;13.45;;;6.68;;
44476;SDS011;30180;44.788;10.366;2023-02-01T14:00:42;16.77;;;6.28;;
44476;SDS011;30180;44.788;10.366;2023-02-01T14:03:18;19.80;;;6.07;;
44476;SDS011;30180;44.788;10.366;2023-02-01T14:05:55;16.63;;;6.35;;
44476;SDS011;30180;44.788;10.366;2023-02-01T14:08:42;17.13;;;6.90;;
44476;SDS011;30180;44.788;10.366;2023-02-01T14:11:35;16.23;;;6.22;;
44476;SDS011;30180;44.788;10.366;2023-02-01T14:23:16;15.02;;;6.00;;
44476;SDS011;30180;44.788;10.366;2023-02-01T14:26:03;12.63;;;5.57;;
44476;SDS011;30180;44.788;10.366;2023-02-01T14:28:44;20.73;;;6.72;;
44476;SDS011;30180;44.788;10.366;2023-02-01T14:31:33;19.10;;;6.60;;
44476;SDS011;30180;44.788;10.366;2023-02-01T14:34:14;14.50;;;5.78;;
44476;SDS011;30180;44.788;10.366;2023-02-01T14:36:47;12.43;;;6.13;;
44476;SDS011;30180;44.788;10.366;2023-02-01T14:39:33;13.90;;;5.95;;
44476;SDS011;30180;44.788;10.366;2023-02-01T14:42:19;14.43;;;6.30;;
44476;SDS011;30180;44.788;10.366;2023-02-01T14:47:27;11.88;;;5.32;;
44476;SDS011;30180;44.788;10.366;2023-02-01T14:50:00;20.23;;;6.03;;
44476;SDS011;30180;44.788;10.366;2023-02-01T14:53:03;16.02;;;5.93;;
44476;SDS011;30180;44.788;10.366;2023-02-01T14:55:43;21.38;;;6.10;;
44476;SDS011;30180;44.788;10.366;2023-02-01T14:58:18;24.67;;;6.03;;
44476;SDS011;30180;44.788;10.366;2023-02-01T15:00:55;24.80;;;6.57;;
44476;SDS011;30180;44.788;10.366;2023-02-01T15:03:41;18.13;;;5.90;;
44476;SDS011;30180;44.788;10.366;2023-02-01T15:06:23;18.45;;;6.07;;
44476;SDS011;30180;44.788;10.366;2023-02-01T15:08:55;19.25;;;5.07;;
44476;SDS011;30180;44.788;10.366;2023-02-01T15:11:27;13.27;;;5.93;;
44476;SDS011;30180;44.788;10.366;2023-02-01T15:13:55;18.83;;;5.20;;
44476;SDS011;30180;44.788;10.366;2023-02-01T15:16:26;15.75;;;5.60;;
44476;SDS011;30180;44.788;10.366;2023-02-01T15:19:09;20.45;;;5.90;;
44476;SDS011;30180;44.788;10.366;2023-02-01T15:21:42;12.85;;;5.40;;
44476;SDS011;30180;44.788;10.366;2023-02-01T15:24:14;15.05;;;4.82;;
44476;SDS011;30180;44.788;10.366;2023-02-01T15:26:46;15.18;;;5.57;;
44476;SDS011;30180;44.788;10.366;2023-02-01T15:29:15;18.27;;;5.40;;
44476;SDS011;30180;44.788;10.366;2023-02-01T15:31:45;24.40;;;5.90;;
44476;SDS011;30180;44.788;10.366;2023-02-01T15:34:16;18.65;;;5.55;;
44476;SDS011;30180;44.788;10.366;2023-02-01T15:36:46;17.80;;;6.03;;
44476;SDS011;30180;44.788;10.366;2023-02-01T15:39:28;15.07;;;5.88;;
44476;SDS011;30180;44.788;10.366;2023-02-01T15:41:59;17.83;;;5.10;;